Bluffton, SC

3:06 AM EDT en Agosto 28, 2014 (GMT -0400)
Bluffton Park | Change Station
CLOSE
Current Station
Estación meteorológica personal
Location: Bluffton, SC
Altura: 30 ft
Estaciones meteorológicas cercanas

Alt 30 ft 32.24 °N, 80.87 °W | Updated 3 minutes ago

Parcialmente nublado
Parcialmente nublado
66.7 ° F
Sensación térmica 66.7 ° F
N
0.0
Viento Variable Viento desde SSO

Hoy
Alta -- | Baja -- ° F
--% Posibilidad de precipitaciones
Ayer
Alta -- | Baja -- ° F
Precip. -- pul
6:56 AM 7:52 PM
Creciente, 7% visible
Presión 30.01 pul
Visibilidad 10.0 Millas
Nubes Nublado 100 ft
Punto de rocío 63 ° F
Humedad 88%
Precipitaciones 0.00 pul
Espesor de la nieve No disponible.
UV 0 de una escala de 12
Polen 7.80 de una escala de 12
Calidad del aire No disponible.
Flu Activity No disponible.
METAR KHXD 280655Z AUTO 00000KT 10SM OVC001 21/20 A3001 RMK AO2 P0000

More Conditions Fewer Conditions

Presión 30.01 pul
Visibilidad 10.0 Millas
Nubes Nublado 100 ft
Punto de rocío 63 ° F
Humedad 88%
Precipitaciones 0.00 pul
Espesor de la nieve No disponible.
UV 0 de una escala de 12
Polen 7.80 de una escala de 12
Calidad del aire No disponible.
Flu Activity No disponible.
METAR KHXD 280655Z AUTO 00000KT 10SM OVC001 21/20 A3001 RMK AO2 P0000

More Conditions Fewer Conditions

10-Day Weather Forecast

Almanac

Astronomía

Aug. 28, 2014 Salida Puesta
Hora real 6:56 AM EDT 7:52 PM EDT
Crepúsculo civil 6:30 AM EDT 8:17 PM EDT
Crepúsculo náutico 6:01 AM EDT 8:47 PM EDT
Crepúsculo astronómico 5:30 AM EDT 9:18 PM EDT
Luna 9:34 AM EDT 9:29 PM EDT
Horas de luz 13h 46m
Horas de luz
12h 56m
Tomorrow will be 1m 52s shorter.
Creciente, 7% of the Moon is Illuminated
Hoy
Creciente
Sep 2
Cuarto creciente
Sep 8
Luna llena
Sep 15
Cuarto menguante
Sep 24
Nueva

Extremos de hoy

Máximos del estado Bajos del estado

Community

WunderPhotos

Upload Photos

1,747,912 ¡fotos cargadas!

Nearby

Grosos de nieve

Estación Profundido Altura
No tenemos constancia de nieve nueva.

Actividad de terremotos

Ciudad Distance Mag. Tiempo y dato
No hay informes recientes de la actividad sísmica.
Magnitud mínima muestra es 2,5.

Temperaturas de aguas costeras

Lugar Temperatura
Sin partes meteorológicos de las estaciones

Estaciones meteorológicas cercanas